CheckWX is a tool to help pilots better visualize weather data.  It is not intended as a substitute for an official pre-flight weather briefing.

06:54:11 UTC

YWGT METAR
Wangaratta Airport
Australia
Current

54 mins ago

YWGT 170600Z AUTO 12002KT 9999 // SCT028 14/07 Q1022
Observed
Jun-17 @ 06:00 UTC
Wind
  • 120° at 2 KTS
Visibility
10,000+ meters
Flight Rules
VFR
Cloud Levels
  • Scattered at 2,800' AGL
Temperature
14°C / 57°F
Dewpoint
C / 45°F
Humidity
63%
Altimeter
30.18" Hg
Pressure
1021.92 hPa
Previous

2 hours ago

YWGT 170500Z AUTO 00000KT 9999 // NCD 14/07 Q1022
Observed
Jun-17 @ 05:00 UTC
Visibility
10,000+ meters
Flight Rules
VFR
Cloud Levels
  • Clear skies
Temperature
14°C / 57°F
Dewpoint
C / 45°F
Humidity
63%
Altimeter
30.18" Hg
Pressure
1021.92 hPa
Previous

3 hours ago

YWGT 170400Z AUTO 32001KT 9999 // NCD 14/08 Q1022
Observed
Jun-17 @ 04:00 UTC
Wind
  • 320° at 1 KTS
Visibility
10,000+ meters
Flight Rules
VFR
Cloud Levels
  • Clear skies
Temperature
14°C / 57°F
Dewpoint
C / 46°F
Humidity
67%
Altimeter
30.18" Hg
Pressure
1021.92 hPa